Time;durP1;ratioP1;P1;durP2;ratioP2;P2;SDS_P1;SDS_P2;PMS_P1;PMS_P2;Temp;Humidity;BMP_temperature;BMP_pressure;BME280_temperature;BME280_humidity;BME280_pressure;Samples;Min_cycle;Max_cycle;Signal;HPM_P1;HPM_P2
2020/12/30 00:02:34;;;;;;;17.77;9.07;;;3.30;99.90;;;;;;12308705;28;20056;-81
2020/12/30 00:08:36;;;;;;;14.57;8.45;;;3.30;99.90;;;;;;12326186;28;20523;-82
2020/12/30 00:14:37;;;;;;;15.93;9.00;;;3.30;99.90;;;;;;12318679;28;20065;-81
2020/12/30 00:20:39;;;;;;;16.05;9.40;;;3.20;99.90;;;;;;12306306;28;20486;-82
2020/12/30 00:26:40;;;;;;;15.90;9.30;;;3.10;99.90;;;;;;12323738;28;20264;-83
2020/12/30 00:32:43;;;;;;;18.20;9.60;;;3.00;99.90;;;;;;12308410;28;20141;-82
2020/12/30 00:38:44;;;;;;;17.95;9.18;;;3.00;99.90;;;;;;12329377;28;20054;-82
2020/12/30 00:44:45;;;;;;;17.60;10.45;;;3.10;99.90;;;;;;12309887;28;20121;-82
2020/12/30 00:50:47;;;;;;;14.85;9.30;;;3.10;99.90;;;;;;12322324;28;20074;-82
2020/12/30 00:56:49;;;;;;;14.85;9.43;;;3.10;99.90;;;;;;12306618;28;20109;-83
2020/12/30 01:02:50;;;;;;;15.95;9.90;;;3.10;99.90;;;;;;12326147;28;20073;-83
2020/12/30 01:08:51;;;;;;;15.40;9.88;;;3.00;99.90;;;;;;12324945;28;20399;-82
2020/12/30 01:14:53;;;;;;;17.23;9.93;;;3.10;99.90;;;;;;12346895;28;20181;-81
2020/12/30 01:21:03;;;;;;;16.80;9.32;;;3.00;99.90;;;;;;12320867;28;20046;-82
2020/12/30 01:27:04;;;;;;;13.07;9.23;;;3.00;99.90;;;;;;12328251;28;20078;-80
2020/12/30 01:33:06;;;;;;;15.02;9.15;;;3.00;99.90;;;;;;12305448;28;20089;-82
2020/12/30 01:39:08;;;;;;;15.40;9.30;;;3.00;99.90;;;;;;12301282;28;20054;-82
2020/12/30 01:45:09;;;;;;;16.20;8.65;;;3.00;99.90;;;;;;12320426;28;20042;-82
2020/12/30 01:51:11;;;;;;;18.30;9.07;;;3.00;99.90;;;;;;12315365;28;20169;-82
2020/12/30 01:57:13;;;;;;;12.93;8.50;;;2.90;99.90;;;;;;12313146;28;20473;-81
2020/12/30 02:03:15;;;;;;;14.73;8.30;;;2.90;99.90;;;;;;12308465;28;20520;-81
2020/12/30 02:09:17;;;;;;;17.52;8.65;;;3.00;99.90;;;;;;12310248;28;20466;-83
2020/12/30 02:15:23;;;;;;;11.75;7.50;;;2.90;99.90;;;;;;12313822;28;20145;-82
2020/12/30 02:21:25;;;;;;;12.85;7.57;;;2.90;99.90;;;;;;12325983;28;20107;-83
2020/12/30 02:27:26;;;;;;;11.82;7.07;;;2.80;99.90;;;;;;12309271;28;20124;-83
2020/12/30 02:33:28;;;;;;;11.82;7.78;;;2.80;99.90;;;;;;12304741;28;20066;-84
2020/12/30 02:39:29;;;;;;;17.08;7.93;;;2.70;99.90;;;;;;12311395;28;20150;-83
2020/12/30 02:45:30;;;;;;;14.57;7.88;;;2.70;99.90;;;;;;12321830;28;20053;-82
2020/12/30 02:51:32;;;;;;;14.18;8.43;;;2.70;99.90;;;;;;12300723;28;20141;-82
2020/12/30 02:57:33;;;;;;;14.90;8.30;;;2.80;99.90;;;;;;12312083;28;20058;-82
2020/12/30 03:03:35;;;;;;;14.13;9.20;;;2.80;99.90;;;;;;12309559;28;20089;-82
2020/12/30 03:09:36;;;;;;;13.82;7.70;;;2.80;99.90;;;;;;12343858;28;21948;-82
2020/12/30 03:15:38;;;;;;;12.52;7.30;;;2.80;99.90;;;;;;12312509;28;20490;-82
2020/12/30 03:21:39;;;;;;;13.73;7.70;;;2.70;99.90;;;;;;12326862;28;20635;-82
2020/12/30 03:27:40;;;;;;;12.68;6.80;;;2.70;99.90;;;;;;12315956;28;20454;-84
2020/12/30 03:33:42;;;;;;;12.90;7.15;;;2.70;99.90;;;;;;12323000;28;20066;-82
2020/12/30 03:39:43;;;;;;;11.15;6.18;;;2.70;99.90;;;;;;12328373;28;20077;-82
2020/12/30 03:45:44;;;;;;;12.52;7.00;;;2.60;99.90;;;;;;12357860;28;20053;-84
2020/12/30 03:51:45;;;;;;;12.25;6.78;;;2.40;99.90;;;;;;12321957;28;20050;-81
2020/12/30 03:57:47;;;;;;;12.70;7.30;;;2.20;99.90;;;;;;12334377;28;20415;-82
2020/12/30 04:03:48;;;;;;;12.00;7.22;;;2.10;99.90;;;;;;12312355;28;20050;-81
2020/12/30 04:09:49;;;;;;;14.43;7.75;;;2.00;99.90;;;;;;12318279;28;20908;-83
2020/12/30 04:15:51;;;;;;;15.32;8.18;;;2.00;99.90;;;;;;12333126;28;20046;-83
2020/12/30 04:21:52;;;;;;;14.73;8.05;;;2.00;99.90;;;;;;12324099;28;20049;-85
2020/12/30 04:27:53;;;;;;;17.50;8.32;;;2.00;99.90;;;;;;12309485;28;20546;-84
2020/12/30 04:33:55;;;;;;;15.15;7.93;;;2.00;99.90;;;;;;12342454;28;20062;-85
2020/12/30 04:39:56;;;;;;;14.95;7.68;;;1.90;99.90;;;;;;12336734;28;20065;-82
2020/12/30 04:45:59;;;;;;;10.52;7.05;;;1.90;99.90;;;;;;12359038;28;20463;-83
2020/12/30 04:52:01;;;;;;;14.55;8.52;;;1.90;99.90;;;;;;12333550;28;20130;-85
2020/12/30 04:58:06;;;;;;;12.95;8.10;;;1.80;99.90;;;;;;12342669;28;20052;-85
2020/12/30 05:04:11;;;;;;;15.20;7.85;;;1.80;99.90;;;;;;12351559;28;20050;-84
2020/12/30 05:10:16;;;;;;;;;;;1.80;99.90;;;;;;12350804;28;20600;-82
2020/12/30 05:16:20;;;;;;;12.25;7.80;;;1.80;99.90;;;;;;12355411;28;19933;-82
2020/12/30 05:22:21;;;;;;;17.95;8.68;;;1.80;99.90;;;;;;12349814;28;20475;-83
2020/12/30 05:28:23;;;;;;;13.77;9.13;;;1.80;99.90;;;;;;12338273;28;20133;-84
2020/12/30 05:34:24;;;;;;;22.70;10.70;;;1.80;99.90;;;;;;12334330;28;20057;-84
2020/12/30 05:40:33;;;;;;;17.20;10.68;;;1.70;99.90;;;;;;12327915;28;20050;-82
2020/12/30 05:46:34;;;;;;;19.15;10.68;;;1.70;99.90;;;;;;12336576;28;20166;-82
2020/12/30 05:52:35;;;;;;;18.15;11.30;;;1.80;99.90;;;;;;12322580;28;20485;-82
2020/12/30 05:58:43;;;;;;;19.38;10.38;;;1.80;99.90;;;;;;12339089;28;21398;-82
2020/12/30 06:04:45;;;;;;;21.55;12.13;;;1.80;99.90;;;;;;12324813;28;20134;-81
2020/12/30 06:10:48;;;;;;;18.65;11.35;;;1.80;99.90;;;;;;12339125;28;20141;-82
2020/12/30 06:16:53;;;;;;;18.73;10.60;;;1.80;99.90;;;;;;12319784;28;20149;-83
2020/12/30 06:22:56;;;;;;;22.80;12.15;;;1.80;99.90;;;;;;12316915;28;20518;-81
2020/12/30 06:29:01;;;;;;;17.83;10.30;;;1.90;99.90;;;;;;12316951;28;20498;-84
2020/12/30 06:35:03;;;;;;;16.63;10.63;;;1.80;99.90;;;;;;12330008;28;20410;-81
2020/12/30 06:41:07;;;;;;;18.75;11.02;;;1.80;99.90;;;;;;12359280;28;20463;-84
2020/12/30 06:47:14;;;;;;;18.98;11.57;;;1.80;99.90;;;;;;12371058;28;20154;-82
2020/12/30 06:53:30;;;;;;;22.33;13.15;;;1.80;99.90;;;;;;12329688;28;20506;-81
2020/12/30 06:59:31;;;;;;;21.48;12.88;;;1.80;99.90;;;;;;12325669;28;20066;-81
2020/12/30 07:05:32;;;;;;;23.05;13.20;;;1.70;99.90;;;;;;12323691;28;20510;-84
2020/12/30 07:11:54;;;;;;;22.02;13.05;;;1.60;99.90;;;;;;12320780;28;20077;-83
2020/12/30 07:17:55;;;;;;;23.77;13.50;;;1.60;99.90;;;;;;12342139;28;20096;-84
2020/12/30 07:23:57;;;;;;;25.38;13.82;;;1.60;99.90;;;;;;12319502;28;20166;-84
2020/12/30 07:29:58;;;;;;;21.30;12.90;;;1.50;99.90;;;;;;12317945;28;20068;-81
2020/12/30 07:36:08;;;;;;;20.15;12.82;;;1.50;99.90;;;;;;12318626;28;20046;-82
2020/12/30 07:42:16;;;;;;;21.80;12.55;;;1.50;99.90;;;;;;12323596;28;20125;-82
2020/12/30 07:48:17;;;;;;;22.60;12.45;;;1.60;99.90;;;;;;12337107;28;21397;-83
2020/12/30 07:54:21;;;;;;;17.40;11.35;;;1.60;99.90;;;;;;12348721;28;20097;-83
2020/12/30 08:00:22;;;;;;;19.93;11.33;;;1.60;99.90;;;;;;12328613;28;20062;-82
2020/12/30 08:06:24;;;;;;;18.65;11.23;;;1.70;99.90;;;;;;12364949;28;20571;-84
2020/12/30 08:12:25;;;;;;;18.60;11.75;;;1.70;99.90;;;;;;12339839;28;20042;-84
2020/12/30 08:18:26;;;;;;;19.95;10.65;;;1.90;99.90;;;;;;12348514;28;20518;-84
2020/12/30 08:24:29;;;;;;;16.88;10.45;;;1.90;99.90;;;;;;12323865;28;20179;-84
2020/12/30 08:30:34;;;;;;;14.48;9.43;;;2.00;99.90;;;;;;12335364;28;20038;-84
2020/12/30 08:36:40;;;;;;;15.20;10.20;;;2.20;99.90;;;;;;12323153;28;20141;-83
2020/12/30 08:42:54;;;;;;;18.15;10.68;;;2.20;99.90;;;;;;12340334;28;20050;-83
2020/12/30 08:48:56;;;;;;;20.15;10.40;;;2.30;99.90;;;;;;12327149;28;20054;-84
2020/12/30 08:55:01;;;;;;;19.60;11.05;;;2.30;99.90;;;;;;12336585;28;20133;-80
2020/12/30 09:01:22;;;;;;;16.77;10.13;;;2.30;99.90;;;;;;12354189;28;20136;-84
2020/12/30 09:07:25;;;;;;;21.20;12.15;;;2.30;99.90;;;;;;12320018;28;20096;-84
2020/12/30 09:13:30;;;;;;;21.00;12.23;;;2.30;99.90;;;;;;12324370;28;20138;-84
2020/12/30 09:19:31;;;;;;;;;;;2.40;99.90;;;;;;12340546;28;20057;-82
2020/12/30 09:25:38;;;;;;;23.17;12.75;;;2.60;99.90;;;;;;12337417;28;19992;-81
2020/12/30 09:31:39;;;;;;;19.55;12.23;;;2.70;99.90;;;;;;12342588;28;20168;-83
2020/12/30 09:37:48;;;;;;;20.55;11.85;;;2.80;99.90;;;;;;12331265;28;20446;-83
2020/12/30 09:43:50;;;;;;;20.70;12.50;;;3.00;99.90;;;;;;12311761;28;20089;-84
2020/12/30 09:49:51;;;;;;;19.90;12.15;;;3.00;99.90;;;;;;12307221;28;20138;-85
2020/12/30 09:55:53;;;;;;;22.63;12.18;;;3.20;99.90;;;;;;12318103;28;20057;-83
2020/12/30 10:01:54;;;;;;;19.23;11.95;;;3.20;99.90;;;;;;12309911;28;20054;-81
2020/12/30 10:07:55;;;;;;;19.80;11.65;;;3.30;99.90;;;;;;12326102;28;20090;-82
2020/12/30 10:13:57;;;;;;;22.00;12.57;;;3.30;99.90;;;;;;12312177;28;20055;-85
2020/12/30 10:19:58;;;;;;;24.13;13.02;;;3.30;99.90;;;;;;12339829;28;20384;-84
2020/12/30 10:25:59;;;;;;;19.27;11.95;;;3.30;99.90;;;;;;12308023;28;20109;-85
2020/12/30 10:32:01;;;;;;;22.48;13.82;;;3.30;99.90;;;;;;12275402;28;20046;-84
2020/12/30 10:38:02;;;;;;;25.38;14.35;;;3.30;99.90;;;;;;12293721;28;20265;-83
2020/12/30 10:44:04;;;;;;;25.15;14.65;;;3.40;99.90;;;;;;12280095;28;20043;-83
2020/12/30 10:50:11;;;;;;;23.63;14.43;;;3.40;99.90;;;;;;12285611;28;20067;-83
2020/12/30 10:56:13;;;;;;;24.63;14.07;;;3.40;99.90;;;;;;12285755;28;20475;-83
2020/12/30 11:02:15;;;;;;;26.23;15.15;;;3.50;99.90;;;;;;12294826;28;20509;-82
2020/12/30 11:08:16;;;;;;;23.63;14.73;;;3.50;99.90;;;;;;12316487;28;20106;-84
2020/12/30 11:14:17;;;;;;;24.67;14.75;;;3.50;99.90;;;;;;12330245;28;20050;-84
2020/12/30 11:20:19;;;;;;;24.95;15.25;;;3.60;99.90;;;;;;12337513;28;20105;-85
2020/12/30 11:26:20;;;;;;;25.73;15.60;;;3.60;99.90;;;;;;12357799;28;20303;-85
2020/12/30 11:32:21;;;;;;;29.25;16.75;;;3.50;99.90;;;;;;12320214;28;20140;-84
2020/12/30 11:38:23;;;;;;;24.52;14.88;;;3.50;99.90;;;;;;12338723;28;20659;-85
2020/12/30 11:44:24;;;;;;;27.73;16.35;;;3.60;99.90;;;;;;12348545;28;20073;-84
2020/12/30 11:50:26;;;;;;;29.45;16.73;;;3.70;99.90;;;;;;12332402;28;20384;-84
2020/12/30 11:56:29;;;;;;;28.00;15.25;;;3.80;99.90;;;;;;12318937;28;20055;-84
2020/12/30 12:02:30;;;;;;;29.25;16.27;;;3.80;99.90;;;;;;12337487;28;20418;-84
2020/12/30 12:08:32;;;;;;;27.50;15.77;;;3.90;99.90;;;;;;12316326;28;20058;-84
2020/12/30 12:14:33;;;;;;;23.60;15.50;;;3.90;99.90;;;;;;12305860;28;20085;-83
2020/12/30 12:20:34;;;;;;;24.23;15.25;;;4.00;99.90;;;;;;12286418;28;20644;-82
2020/12/30 12:26:36;;;;;;;25.98;15.32;;;3.90;99.90;;;;;;12288484;28;20570;-84
2020/12/30 12:32:37;;;;;;;25.45;15.77;;;4.00;99.90;;;;;;12291642;28;20686;-84
2020/12/30 12:38:39;;;;;;;23.15;14.63;;;4.00;99.90;;;;;;12285677;28;20372;-83
2020/12/30 12:44:41;;;;;;;33.58;16.88;;;4.00;99.90;;;;;;12307194;28;20137;-83
2020/12/30 12:50:42;;;;;;;26.08;15.45;;;4.00;99.90;;;;;;12288476;28;20073;-84
2020/12/30 12:56:44;;;;;;;28.08;16.08;;;4.10;99.90;;;;;;12290514;28;20109;-84
2020/12/30 13:02:45;;;;;;;27.67;15.13;;;4.00;99.90;;;;;;12279149;28;20044;-83
2020/12/30 13:08:47;;;;;;;24.52;15.05;;;4.00;99.90;;;;;;12286464;28;20054;-84
2020/12/30 13:14:48;;;;;;;27.95;15.65;;;4.00;99.90;;;;;;12292847;28;21188;-83
2020/12/30 13:20:50;;;;;;;25.27;15.50;;;4.00;99.90;;;;;;12297784;28;20457;-84
2020/12/30 13:26:51;;;;;;;28.23;15.85;;;4.10;99.90;;;;;;12298688;28;20073;-83
2020/12/30 13:32:52;;;;;;;28.45;15.85;;;4.10;99.90;;;;;;12285152;28;20105;-83
2020/12/30 13:39:11;;;;;;;26.17;14.40;;;4.10;99.90;;;;;;12296318;28;20059;-84
2020/12/30 13:45:12;;;;;;;27.92;14.52;;;4.10;99.90;;;;;;12287923;28;20075;-83
2020/12/30 13:51:17;;;;;;;25.45;15.57;;;4.10;99.90;;;;;;12285592;28;20071;-84
2020/12/30 13:57:18;;;;;;;;;;;4.20;99.90;;;;;;12307250;28;20418;-84
2020/12/30 14:03:20;;;;;;;24.33;13.48;;;4.20;99.90;;;;;;12320584;28;20020;-83
2020/12/30 14:09:21;;;;;;;23.92;14.18;;;4.30;99.90;;;;;;12323230;28;20070;-84
2020/12/30 14:15:22;;;;;;;22.38;14.93;;;4.20;99.90;;;;;;12321003;28;20042;-83
2020/12/30 14:21:24;;;;;;;23.90;13.20;;;4.20;99.90;;;;;;12302815;28;20610;-84
2020/12/30 14:27:25;;;;;;;21.95;13.65;;;4.20;99.90;;;;;;12318235;28;20054;-83
2020/12/30 14:33:26;;;;;;;24.20;14.25;;;4.10;99.90;;;;;;12351949;28;21023;-83
2020/12/30 14:39:28;;;;;;;18.88;13.02;;;4.10;99.90;;;;;;12334476;28;20057;-84
2020/12/30 14:45:30;;;;;;;18.67;13.00;;;4.00;99.90;;;;;;12324807;28;20801;-82
2020/12/30 14:51:31;;;;;;;22.55;13.70;;;4.00;99.90;;;;;;12325481;28;20053;-81
2020/12/30 14:57:33;;;;;;;20.83;13.88;;;4.00;99.90;;;;;;12332241;28;20145;-83
2020/12/30 15:03:34;;;;;;;19.63;13.38;;;4.00;99.90;;;;;;12340889;28;20105;-82
2020/12/30 15:09:35;;;;;;;19.65;13.20;;;4.00;99.90;;;;;;12320570;28;20684;-83
2020/12/30 15:15:37;;;;;;;24.13;14.48;;;4.00;99.90;;;;;;12314624;28;20135;-83
2020/12/30 15:21:38;;;;;;;26.08;15.93;;;3.90;99.90;;;;;;12338113;28;20061;-82
2020/12/30 15:27:39;;;;;;;25.65;16.58;;;4.00;99.90;;;;;;12341872;28;20074;-83
2020/12/30 15:33:41;;;;;;;25.73;16.55;;;4.00;99.90;;;;;;12342189;28;20145;-84
2020/12/30 15:39:42;;;;;;;26.13;15.85;;;4.00;99.90;;;;;;12328545;28;20120;-84
2020/12/30 15:45:48;;;;;;;25.45;15.85;;;4.00;99.90;;;;;;12347907;28;20514;-84
2020/12/30 15:51:54;;;;;;;22.42;15.30;;;3.90;99.90;;;;;;12320553;28;20402;-82
2020/12/30 15:57:55;;;;;;;22.13;14.25;;;4.00;99.90;;;;;;12347957;28;20057;-83
2020/12/30 16:03:57;;;;;;;21.20;14.45;;;4.00;99.90;;;;;;12347301;28;20463;-83
2020/12/30 16:09:58;;;;;;;20.05;14.27;;;4.00;99.90;;;;;;12334795;28;20057;-83
2020/12/30 16:16:00;;;;;;;22.45;14.88;;;4.00;99.90;;;;;;12333354;28;20488;-83
2020/12/30 16:22:02;;;;;;;21.77;15.43;;;3.90;99.90;;;;;;12357302;28;20054;-83
2020/12/30 16:28:05;;;;;;;23.33;16.27;;;3.90;99.90;;;;;;12332910;28;20057;-82
2020/12/30 16:34:07;;;;;;;23.75;16.58;;;3.90;99.90;;;;;;12338330;28;20144;-83
2020/12/30 16:40:08;;;;;;;26.25;18.25;;;3.90;99.90;;;;;;12322902;28;20051;-83
2020/12/30 16:46:11;;;;;;;29.88;18.13;;;3.90;99.90;;;;;;12334356;28;20046;-84
2020/12/30 16:52:12;;;;;;;28.98;17.77;;;3.90;99.90;;;;;;12324764;28;20157;-84
2020/12/30 16:58:14;;;;;;;27.80;18.15;;;3.90;99.90;;;;;;12302842;28;20082;-84
2020/12/30 17:04:16;;;;;;;27.35;18.83;;;4.00;99.90;;;;;;12288713;28;20473;-83
2020/12/30 17:10:17;;;;;;;25.77;17.50;;;3.90;99.90;;;;;;12260904;28;20142;-83
2020/12/30 17:16:19;;;;;;;30.38;19.55;;;4.00;99.90;;;;;;12252744;28;20105;-83
2020/12/30 17:22:20;;;;;;;34.40;21.27;;;3.90;99.90;;;;;;12305179;28;20074;-83
2020/12/30 17:28:22;;;;;;;31.38;20.33;;;3.80;99.90;;;;;;12266972;28;20075;-84
2020/12/30 17:34:26;;;;;;;31.65;21.65;;;3.80;99.90;;;;;;12267875;28;20071;-84
2020/12/30 17:40:28;;;;;;;32.00;22.23;;;3.80;99.90;;;;;;12265797;28;20051;-83
2020/12/30 17:46:29;;;;;;;32.67;22.05;;;3.80;99.90;;;;;;12313180;28;20062;-84
2020/12/30 17:52:31;;;;;;;33.03;22.65;;;3.80;99.90;;;;;;12284778;28;20329;-83
2020/12/30 17:58:33;;;;;;;36.53;23.55;;;3.70;99.90;;;;;;12290971;28;20206;-85
2020/12/30 18:04:34;;;;;;;36.80;23.85;;;3.70;99.90;;;;;;12319961;28;20077;-84
2020/12/30 18:10:36;;;;;;;36.65;24.88;;;3.80;99.90;;;;;;12279056;28;20043;-84
2020/12/30 18:16:39;;;;;;;38.72;24.63;;;3.80;99.90;;;;;;12299448;28;20407;-83
2020/12/30 18:22:40;;;;;;;42.45;25.88;;;3.80;99.90;;;;;;12279435;28;20124;-83
2020/12/30 18:28:42;;;;;;;43.47;26.67;;;3.80;99.90;;;;;;12289576;28;20043;-83
2020/12/30 18:34:46;;;;;;;45.90;28.10;;;3.90;99.90;;;;;;12292751;28;20054;-84
